sensor_id;sensor_type;location;lat;lon;timestamp;P1;durP1;ratioP1;P2;durP2;ratioP2
14342;SDS011;7255;53.596;9.960;2022-12-16T00:00:22;35.97;;;25.00;;
14342;SDS011;7255;53.596;9.960;2022-12-16T00:02:49;34.23;;;25.63;;
14342;SDS011;7255;53.596;9.960;2022-12-16T00:05:16;33.47;;;24.90;;
14342;SDS011;7255;53.596;9.960;2022-12-16T00:07:43;32.97;;;24.70;;
14342;SDS011;7255;53.596;9.960;2022-12-16T00:10:10;30.73;;;23.57;;
14342;SDS011;7255;53.596;9.960;2022-12-16T00:12:36;34.43;;;24.30;;
14342;SDS011;7255;53.596;9.960;2022-12-16T00:15:03;32.07;;;24.53;;
14342;SDS011;7255;53.596;9.960;2022-12-16T00:17:31;36.10;;;24.90;;
14342;SDS011;7255;53.596;9.960;2022-12-16T00:19:57;32.40;;;24.73;;
14342;SDS011;7255;53.596;9.960;2022-12-16T00:22:24;36.17;;;25.30;;
14342;SDS011;7255;53.596;9.960;2022-12-16T00:24:50;33.57;;;25.10;;
14342;SDS011;7255;53.596;9.960;2022-12-16T00:27:16;34.60;;;25.97;;
14342;SDS011;7255;53.596;9.960;2022-12-16T00:29:43;32.53;;;23.30;;
14342;SDS011;7255;53.596;9.960;2022-12-16T00:32:09;37.40;;;25.10;;
14342;SDS011;7255;53.596;9.960;2022-12-16T00:34:37;34.40;;;25.93;;
14342;SDS011;7255;53.596;9.960;2022-12-16T00:37:03;36.07;;;23.67;;
14342;SDS011;7255;53.596;9.960;2022-12-16T00:39:30;35.23;;;23.93;;
14342;SDS011;7255;53.596;9.960;2022-12-16T00:41:56;33.30;;;23.57;;
14342;SDS011;7255;53.596;9.960;2022-12-16T00:44:23;32.50;;;24.33;;
14342;SDS011;7255;53.596;9.960;2022-12-16T00:46:49;34.17;;;24.07;;
14342;SDS011;7255;53.596;9.960;2022-12-16T00:49:15;31.30;;;24.20;;
14342;SDS011;7255;53.596;9.960;2022-12-16T00:51:43;28.70;;;23.13;;
14342;SDS011;7255;53.596;9.960;2022-12-16T00:54:09;34.30;;;24.70;;
14342;SDS011;7255;53.596;9.960;2022-12-16T00:56:35;38.03;;;23.83;;
14342;SDS011;7255;53.596;9.960;2022-12-16T00:59:02;33.40;;;24.20;;
14342;SDS011;7255;53.596;9.960;2022-12-16T01:01:28;31.83;;;22.90;;
14342;SDS011;7255;53.596;9.960;2022-12-16T01:03:54;32.03;;;23.90;;
14342;SDS011;7255;53.596;9.960;2022-12-16T01:06:21;33.53;;;23.43;;
14342;SDS011;7255;53.596;9.960;2022-12-16T01:08:49;35.73;;;24.00;;
14342;SDS011;7255;53.596;9.960;2022-12-16T01:11:16;28.37;;;22.50;;
14342;SDS011;7255;53.596;9.960;2022-12-16T01:13:44;31.57;;;24.27;;
14342;SDS011;7255;53.596;9.960;2022-12-16T01:16:11;28.43;;;22.23;;
14342;SDS011;7255;53.596;9.960;2022-12-16T01:18:38;33.47;;;23.87;;
14342;SDS011;7255;53.596;9.960;2022-12-16T01:21:05;32.90;;;23.90;;
14342;SDS011;7255;53.596;9.960;2022-12-16T01:23:32;30.50;;;22.27;;
14342;SDS011;7255;53.596;9.960;2022-12-16T01:26:00;33.67;;;23.33;;
14342;SDS011;7255;53.596;9.960;2022-12-16T01:28:27;30.10;;;21.40;;
14342;SDS011;7255;53.596;9.960;2022-12-16T01:30:55;34.17;;;22.20;;
14342;SDS011;7255;53.596;9.960;2022-12-16T01:33:25;31.57;;;21.63;;
14342;SDS011;7255;53.596;9.960;2022-12-16T01:35:57;27.87;;;22.13;;
14342;SDS011;7255;53.596;9.960;2022-12-16T01:38:24;29.53;;;22.00;;
14342;SDS011;7255;53.596;9.960;2022-12-16T01:40:50;32.90;;;22.50;;
14342;SDS011;7255;53.596;9.960;2022-12-16T01:43:18;29.77;;;21.23;;
14342;SDS011;7255;53.596;9.960;2022-12-16T01:45:48;26.53;;;20.80;;
14342;SDS011;7255;53.596;9.960;2022-12-16T01:48:17;28.20;;;20.80;;
14342;SDS011;7255;53.596;9.960;2022-12-16T01:50:47;32.40;;;23.80;;
14342;SDS011;7255;53.596;9.960;2022-12-16T01:53:15;30.87;;;21.53;;
14342;SDS011;7255;53.596;9.960;2022-12-16T01:55:42;28.13;;;20.80;;
14342;SDS011;7255;53.596;9.960;2022-12-16T01:58:14;28.80;;;21.27;;
14342;SDS011;7255;53.596;9.960;2022-12-16T02:00:45;33.80;;;20.20;;
14342;SDS011;7255;53.596;9.960;2022-12-16T02:03:11;25.90;;;19.43;;
14342;SDS011;7255;53.596;9.960;2022-12-16T02:05:38;30.40;;;21.20;;
14342;SDS011;7255;53.596;9.960;2022-12-16T02:08:09;25.83;;;20.40;;
14342;SDS011;7255;53.596;9.960;2022-12-16T02:10:41;32.80;;;20.13;;
14342;SDS011;7255;53.596;9.960;2022-12-16T02:13:22;25.70;;;19.97;;
14342;SDS011;7255;53.596;9.960;2022-12-16T02:15:56;26.90;;;20.20;;
14342;SDS011;7255;53.596;9.960;2022-12-16T02:18:31;31.07;;;21.83;;
14342;SDS011;7255;53.596;9.960;2022-12-16T02:21:17;28.57;;;21.03;;
14342;SDS011;7255;53.596;9.960;2022-12-16T02:27:18;30.37;;;21.43;;
14342;SDS011;7255;53.596;9.960;2022-12-16T02:30:07;29.10;;;21.57;;
14342;SDS011;7255;53.596;9.960;2022-12-16T02:32:59;32.37;;;20.63;;
14342;SDS011;7255;53.596;9.960;2022-12-16T02:35:38;30.13;;;22.00;;
14342;SDS011;7255;53.596;9.960;2022-12-16T02:38:11;30.53;;;22.67;;
14342;SDS011;7255;53.596;9.960;2022-12-16T02:40:48;29.73;;;21.63;;
14342;SDS011;7255;53.596;9.960;2022-12-16T02:43:21;28.77;;;21.20;;
14342;SDS011;7255;53.596;9.960;2022-12-16T02:46:01;27.33;;;21.40;;
14342;SDS011;7255;53.596;9.960;2022-12-16T02:48:29;31.53;;;23.20;;
14342;SDS011;7255;53.596;9.960;2022-12-16T02:50:56;31.40;;;21.27;;
14342;SDS011;7255;53.596;9.960;2022-12-16T02:53:22;28.87;;;21.90;;
14342;SDS011;7255;53.596;9.960;2022-12-16T02:55:51;26.57;;;20.67;;
14342;SDS011;7255;53.596;9.960;2022-12-16T02:58:25;28.60;;;21.33;;
14342;SDS011;7255;53.596;9.960;2022-12-16T03:00:59;29.90;;;20.83;;
14342;SDS011;7255;53.596;9.960;2022-12-16T03:03:37;29.73;;;21.50;;
14342;SDS011;7255;53.596;9.960;2022-12-16T03:06:08;30.63;;;21.93;;
14342;SDS011;7255;53.596;9.960;2022-12-16T03:08:38;29.10;;;22.33;;
14342;SDS011;7255;53.596;9.960;2022-12-16T03:11:06;31.07;;;22.40;;
14342;SDS011;7255;53.596;9.960;2022-12-16T03:13:34;36.77;;;23.40;;
14342;SDS011;7255;53.596;9.960;2022-12-16T03:16:04;30.93;;;22.20;;
14342;SDS011;7255;53.596;9.960;2022-12-16T03:18:34;30.70;;;21.57;;
14342;SDS011;7255;53.596;9.960;2022-12-16T03:21:05;32.10;;;23.13;;
14342;SDS011;7255;53.596;9.960;2022-12-16T03:23:35;29.97;;;22.23;;
14342;SDS011;7255;53.596;9.960;2022-12-16T03:26:06;31.03;;;22.10;;
14342;SDS011;7255;53.596;9.960;2022-12-16T03:28:41;33.87;;;24.10;;
14342;SDS011;7255;53.596;9.960;2022-12-16T03:31:15;34.27;;;23.07;;
14342;SDS011;7255;53.596;9.960;2022-12-16T03:33:52;33.27;;;22.83;;
14342;SDS011;7255;53.596;9.960;2022-12-16T03:36:25;33.10;;;22.70;;
14342;SDS011;7255;53.596;9.960;2022-12-16T03:38:55;34.67;;;23.80;;
14342;SDS011;7255;53.596;9.960;2022-12-16T03:41:22;32.47;;;24.13;;
14342;SDS011;7255;53.596;9.960;2022-12-16T03:43:49;34.80;;;24.00;;
14342;SDS011;7255;53.596;9.960;2022-12-16T03:46:17;33.77;;;24.00;;
14342;SDS011;7255;53.596;9.960;2022-12-16T03:48:44;35.30;;;24.30;;
14342;SDS011;7255;53.596;9.960;2022-12-16T03:51:11;37.80;;;25.30;;
14342;SDS011;7255;53.596;9.960;2022-12-16T03:53:39;34.60;;;24.17;;
14342;SDS011;7255;53.596;9.960;2022-12-16T03:56:05;37.23;;;24.00;;
14342;SDS011;7255;53.596;9.960;2022-12-16T03:58:32;33.77;;;24.30;;
14342;SDS011;7255;53.596;9.960;2022-12-16T04:00:59;33.13;;;25.30;;
14342;SDS011;7255;53.596;9.960;2022-12-16T04:03:25;36.67;;;24.10;;
14342;SDS011;7255;53.596;9.960;2022-12-16T04:05:52;34.87;;;22.33;;
14342;SDS011;7255;53.596;9.960;2022-12-16T04:08:18;35.17;;;23.30;;
14342;SDS011;7255;53.596;9.960;2022-12-16T04:10:45;33.87;;;22.23;;
14342;SDS011;7255;53.596;9.960;2022-12-16T04:13:33;33.20;;;25.43;;
14342;SDS011;7255;53.596;9.960;2022-12-16T04:16:17;34.37;;;24.17;;
14342;SDS011;7255;53.596;9.960;2022-12-16T04:19:01;35.67;;;23.53;;
14342;SDS011;7255;53.596;9.960;2022-12-16T04:21:45;32.07;;;24.07;;
14342;SDS011;7255;53.596;9.960;2022-12-16T04:24:29;33.20;;;23.63;;
14342;SDS011;7255;53.596;9.960;2022-12-16T04:26:58;37.83;;;25.77;;
14342;SDS011;7255;53.596;9.960;2022-12-16T04:29:42;34.47;;;26.20;;
14342;SDS011;7255;53.596;9.960;2022-12-16T04:32:23;36.60;;;25.33;;
14342;SDS011;7255;53.596;9.960;2022-12-16T04:34:50;39.93;;;25.80;;
14342;SDS011;7255;53.596;9.960;2022-12-16T04:37:16;40.47;;;26.47;;
14342;SDS011;7255;53.596;9.960;2022-12-16T04:40:00;36.20;;;25.90;;
14342;SDS011;7255;53.596;9.960;2022-12-16T04:42:45;36.57;;;25.00;;
14342;SDS011;7255;53.596;9.960;2022-12-16T04:45:29;35.57;;;24.60;;
14342;SDS011;7255;53.596;9.960;2022-12-16T04:48:13;37.70;;;23.80;;
14342;SDS011;7255;53.596;9.960;2022-12-16T04:50:56;37.00;;;24.63;;
14342;SDS011;7255;53.596;9.960;2022-12-16T04:53:40;29.93;;;22.60;;
14342;SDS011;7255;53.596;9.960;2022-12-16T04:56:24;33.47;;;25.80;;
14342;SDS011;7255;53.596;9.960;2022-12-16T04:59:10;35.87;;;24.30;;
14342;SDS011;7255;53.596;9.960;2022-12-16T05:01:54;42.80;;;23.80;;
14342;SDS011;7255;53.596;9.960;2022-12-16T05:04:38;35.57;;;23.57;;
14342;SDS011;7255;53.596;9.960;2022-12-16T05:07:22;37.83;;;25.40;;
14342;SDS011;7255;53.596;9.960;2022-12-16T05:10:07;36.03;;;24.83;;
14342;SDS011;7255;53.596;9.960;2022-12-16T05:12:51;38.70;;;24.83;;
14342;SDS011;7255;53.596;9.960;2022-12-16T05:15:36;36.37;;;25.30;;
14342;SDS011;7255;53.596;9.960;2022-12-16T05:18:20;34.13;;;24.57;;
14342;SDS011;7255;53.596;9.960;2022-12-16T05:21:04;37.57;;;25.10;;
14342;SDS011;7255;53.596;9.960;2022-12-16T05:23:48;36.60;;;23.63;;
14342;SDS011;7255;53.596;9.960;2022-12-16T05:26:32;37.23;;;24.53;;
14342;SDS011;7255;53.596;9.960;2022-12-16T05:29:17;40.47;;;26.53;;
14342;SDS011;7255;53.596;9.960;2022-12-16T05:32:02;35.17;;;24.30;;
14342;SDS011;7255;53.596;9.960;2022-12-16T05:34:46;34.67;;;25.93;;
14342;SDS011;7255;53.596;9.960;2022-12-16T05:37:30;37.83;;;25.50;;
14342;SDS011;7255;53.596;9.960;2022-12-16T05:40:22;36.67;;;25.83;;
14342;SDS011;7255;53.596;9.960;2022-12-16T05:43:06;37.37;;;26.20;;
14342;SDS011;7255;53.596;9.960;2022-12-16T05:45:50;39.10;;;25.20;;
14342;SDS011;7255;53.596;9.960;2022-12-16T05:48:35;35.93;;;26.40;;
14342;SDS011;7255;53.596;9.960;2022-12-16T05:51:19;39.67;;;26.23;;
14342;SDS011;7255;53.596;9.960;2022-12-16T05:54:02;38.70;;;26.33;;
14342;SDS011;7255;53.596;9.960;2022-12-16T05:56:47;35.73;;;26.30;;
14342;SDS011;7255;53.596;9.960;2022-12-16T05:59:31;39.47;;;27.47;;
14342;SDS011;7255;53.596;9.960;2022-12-16T06:02:15;38.67;;;25.00;;
14342;SDS011;7255;53.596;9.960;2022-12-16T06:05:00;40.50;;;26.13;;
14342;SDS011;7255;53.596;9.960;2022-12-16T06:07:48;40.30;;;28.40;;
14342;SDS011;7255;53.596;9.960;2022-12-16T06:10:33;39.90;;;26.83;;
14342;SDS011;7255;53.596;9.960;2022-12-16T06:13:19;40.10;;;27.87;;
14342;SDS011;7255;53.596;9.960;2022-12-16T06:16:03;43.47;;;27.60;;
14342;SDS011;7255;53.596;9.960;2022-12-16T06:18:47;44.63;;;27.13;;
14342;SDS011;7255;53.596;9.960;2022-12-16T06:21:33;37.70;;;26.63;;
14342;SDS011;7255;53.596;9.960;2022-12-16T06:24:17;41.17;;;27.27;;
14342;SDS011;7255;53.596;9.960;2022-12-16T06:27:01;44.20;;;28.57;;
14342;SDS011;7255;53.596;9.960;2022-12-16T06:29:44;35.40;;;26.33;;
14342;SDS011;7255;53.596;9.960;2022-12-16T06:32:28;40.20;;;27.63;;
14342;SDS011;7255;53.596;9.960;2022-12-16T06:35:12;39.53;;;26.30;;
14342;SDS011;7255;53.596;9.960;2022-12-16T06:37:57;40.63;;;26.97;;
14342;SDS011;7255;53.596;9.960;2022-12-16T06:40:38;41.97;;;28.13;;
14342;SDS011;7255;53.596;9.960;2022-12-16T06:43:22;39.67;;;26.13;;
14342;SDS011;7255;53.596;9.960;2022-12-16T06:46:06;42.87;;;28.47;;
14342;SDS011;7255;53.596;9.960;2022-12-16T06:48:50;40.97;;;27.33;;
14342;SDS011;7255;53.596;9.960;2022-12-16T06:51:34;43.30;;;28.87;;
14342;SDS011;7255;53.596;9.960;2022-12-16T06:54:19;44.33;;;27.50;;
14342;SDS011;7255;53.596;9.960;2022-12-16T06:57:03;46.10;;;29.03;;
14342;SDS011;7255;53.596;9.960;2022-12-16T06:59:47;44.77;;;25.80;;
14342;SDS011;7255;53.596;9.960;2022-12-16T07:02:31;40.33;;;28.00;;
14342;SDS011;7255;53.596;9.960;2022-12-16T07:05:15;44.70;;;28.77;;
14342;SDS011;7255;53.596;9.960;2022-12-16T07:07:59;38.40;;;27.60;;
14342;SDS011;7255;53.596;9.960;2022-12-16T07:10:44;44.90;;;28.47;;
14342;SDS011;7255;53.596;9.960;2022-12-16T07:13:28;46.73;;;28.60;;
14342;SDS011;7255;53.596;9.960;2022-12-16T07:16:12;40.07;;;28.53;;
14342;SDS011;7255;53.596;9.960;2022-12-16T07:18:56;46.77;;;30.27;;
14342;SDS011;7255;53.596;9.960;2022-12-16T07:21:40;41.60;;;27.73;;
14342;SDS011;7255;53.596;9.960;2022-12-16T07:24:24;44.63;;;29.77;;
14342;SDS011;7255;53.596;9.960;2022-12-16T07:27:09;44.30;;;28.20;;
14342;SDS011;7255;53.596;9.960;2022-12-16T07:29:50;44.30;;;29.87;;
14342;SDS011;7255;53.596;9.960;2022-12-16T07:32:33;43.43;;;29.53;;
14342;SDS011;7255;53.596;9.960;2022-12-16T07:35:17;47.50;;;30.90;;
14342;SDS011;7255;53.596;9.960;2022-12-16T07:38:01;45.10;;;31.27;;
14342;SDS011;7255;53.596;9.960;2022-12-16T07:40:46;45.53;;;31.73;;
14342;SDS011;7255;53.596;9.960;2022-12-16T07:43:31;47.73;;;31.03;;
14342;SDS011;7255;53.596;9.960;2022-12-16T07:46:15;48.13;;;31.20;;
14342;SDS011;7255;53.596;9.960;2022-12-16T07:48:59;45.63;;;29.60;;
14342;SDS011;7255;53.596;9.960;2022-12-16T07:51:44;49.87;;;31.57;;
14342;SDS011;7255;53.596;9.960;2022-12-16T07:54:27;54.30;;;31.90;;
14342;SDS011;7255;53.596;9.960;2022-12-16T07:57:11;46.77;;;31.23;;
14342;SDS011;7255;53.596;9.960;2022-12-16T07:59:57;51.53;;;31.53;;
14342;SDS011;7255;53.596;9.960;2022-12-16T08:02:41;47.93;;;31.37;;
14342;SDS011;7255;53.596;9.960;2022-12-16T08:05:25;50.97;;;30.23;;
14342;SDS011;7255;53.596;9.960;2022-12-16T08:08:08;41.20;;;28.60;;
14342;SDS011;7255;53.596;9.960;2022-12-16T08:10:52;42.30;;;30.60;;
14342;SDS011;7255;53.596;9.960;2022-12-16T08:13:36;49.37;;;31.87;;
14342;SDS011;7255;53.596;9.960;2022-12-16T08:16:22;46.90;;;31.27;;
14342;SDS011;7255;53.596;9.960;2022-12-16T08:19:06;52.93;;;32.13;;
14342;SDS011;7255;53.596;9.960;2022-12-16T08:21:50;48.43;;;30.63;;
14342;SDS011;7255;53.596;9.960;2022-12-16T08:24:34;46.13;;;31.37;;
14342;SDS011;7255;53.596;9.960;2022-12-16T08:27:18;42.67;;;29.70;;
14342;SDS011;7255;53.596;9.960;2022-12-16T08:30:02;43.20;;;29.97;;
14342;SDS011;7255;53.596;9.960;2022-12-16T08:32:48;41.60;;;30.07;;
14342;SDS011;7255;53.596;9.960;2022-12-16T08:35:32;48.93;;;29.80;;
14342;SDS011;7255;53.596;9.960;2022-12-16T08:38:16;42.03;;;29.67;;
14342;SDS011;7255;53.596;9.960;2022-12-16T08:41:00;42.83;;;30.70;;
14342;SDS011;7255;53.596;9.960;2022-12-16T08:43:44;43.77;;;28.70;;
14342;SDS011;7255;53.596;9.960;2022-12-16T08:46:28;50.03;;;30.73;;
14342;SDS011;7255;53.596;9.960;2022-12-16T08:49:13;42.63;;;28.33;;
14342;SDS011;7255;53.596;9.960;2022-12-16T08:51:57;39.50;;;27.90;;
14342;SDS011;7255;53.596;9.960;2022-12-16T08:54:41;44.47;;;30.07;;
14342;SDS011;7255;53.596;9.960;2022-12-16T08:57:25;41.23;;;30.27;;
14342;SDS011;7255;53.596;9.960;2022-12-16T09:00:09;43.10;;;27.80;;
14342;SDS011;7255;53.596;9.960;2022-12-16T09:02:54;41.70;;;30.40;;
14342;SDS011;7255;53.596;9.960;2022-12-16T09:05:40;45.50;;;30.30;;
14342;SDS011;7255;53.596;9.960;2022-12-16T09:08:24;41.83;;;29.27;;
14342;SDS011;7255;53.596;9.960;2022-12-16T09:11:08;43.10;;;29.37;;
14342;SDS011;7255;53.596;9.960;2022-12-16T09:13:52;41.70;;;29.57;;
14342;SDS011;7255;53.596;9.960;2022-12-16T09:16:36;47.00;;;30.57;;
14342;SDS011;7255;53.596;9.960;2022-12-16T09:19:21;39.10;;;28.90;;
14342;SDS011;7255;53.596;9.960;2022-12-16T09:22:06;40.97;;;28.53;;
14342;SDS011;7255;53.596;9.960;2022-12-16T09:24:50;48.10;;;29.77;;
14342;SDS011;7255;53.596;9.960;2022-12-16T09:27:34;42.90;;;28.97;;
14342;SDS011;7255;53.596;9.960;2022-12-16T09:30:17;42.03;;;27.87;;
14342;SDS011;7255;53.596;9.960;2022-12-16T09:33:01;39.73;;;29.20;;
14342;SDS011;7255;53.596;9.960;2022-12-16T09:35:46;44.90;;;30.00;;
14342;SDS011;7255;53.596;9.960;2022-12-16T09:38:31;36.40;;;27.50;;
14342;SDS011;7255;53.596;9.960;2022-12-16T09:41:22;42.00;;;28.63;;
14342;SDS011;7255;53.596;9.960;2022-12-16T09:44:16;41.00;;;28.60;;
14342;SDS011;7255;53.596;9.960;2022-12-16T09:47:05;42.10;;;28.00;;
14342;SDS011;7255;53.596;9.960;2022-12-16T09:49:57;38.57;;;26.23;;
14342;SDS011;7255;53.596;9.960;2022-12-16T09:52:43;40.10;;;27.33;;
14342;SDS011;7255;53.596;9.960;2022-12-16T09:55:44;37.97;;;27.13;;
14342;SDS011;7255;53.596;9.960;2022-12-16T09:58:29;42.83;;;28.27;;
14342;SDS011;7255;53.596;9.960;2022-12-16T10:01:19;38.27;;;26.20;;
14342;SDS011;7255;53.596;9.960;2022-12-16T10:04:04;41.43;;;28.40;;
14342;SDS011;7255;53.596;9.960;2022-12-16T10:06:50;40.17;;;27.77;;
14342;SDS011;7255;53.596;9.960;2022-12-16T10:09:39;38.13;;;27.63;;
14342;SDS011;7255;53.596;9.960;2022-12-16T10:12:34;38.80;;;27.37;;
14342;SDS011;7255;53.596;9.960;2022-12-16T10:15:25;38.63;;;27.53;;
14342;SDS011;7255;53.596;9.960;2022-12-16T10:18:20;37.73;;;26.17;;
14342;SDS011;7255;53.596;9.960;2022-12-16T10:21:17;39.23;;;27.43;;
14342;SDS011;7255;53.596;9.960;2022-12-16T10:24:08;36.03;;;26.03;;
14342;SDS011;7255;53.596;9.960;2022-12-16T10:27:02;36.33;;;26.30;;
14342;SDS011;7255;53.596;9.960;2022-12-16T10:29:53;36.43;;;26.73;;
14342;SDS011;7255;53.596;9.960;2022-12-16T10:32:39;40.60;;;28.60;;
14342;SDS011;7255;53.596;9.960;2022-12-16T10:35:26;32.17;;;25.43;;
14342;SDS011;7255;53.596;9.960;2022-12-16T10:38:13;33.27;;;24.67;;
14342;SDS011;7255;53.596;9.960;2022-12-16T10:41:03;35.63;;;26.23;;
14342;SDS011;7255;53.596;9.960;2022-12-16T10:43:49;34.30;;;25.87;;
14342;SDS011;7255;53.596;9.960;2022-12-16T10:46:36;35.27;;;26.07;;
14342;SDS011;7255;53.596;9.960;2022-12-16T10:49:16;32.70;;;25.23;;
14342;SDS011;7255;53.596;9.960;2022-12-16T10:52:01;34.20;;;25.73;;
14342;SDS011;7255;53.596;9.960;2022-12-16T10:54:47;34.90;;;26.23;;
14342;SDS011;7255;53.596;9.960;2022-12-16T10:57:44;36.43;;;26.20;;
14342;SDS011;7255;53.596;9.960;2022-12-16T11:00:42;35.83;;;27.83;;
14342;SDS011;7255;53.596;9.960;2022-12-16T11:03:30;36.83;;;26.03;;
14342;SDS011;7255;53.596;9.960;2022-12-16T11:06:16;32.63;;;26.30;;
14342;SDS011;7255;53.596;9.960;2022-12-16T11:09:15;38.80;;;26.87;;
14342;SDS011;7255;53.596;9.960;2022-12-16T11:12:19;33.83;;;25.87;;
14342;SDS011;7255;53.596;9.960;2022-12-16T11:18:07;34.43;;;26.67;;
14342;SDS011;7255;53.596;9.960;2022-12-16T11:21:04;38.23;;;26.20;;
14342;SDS011;7255;53.596;9.960;2022-12-16T11:24:06;33.47;;;25.50;;
14342;SDS011;7255;53.596;9.960;2022-12-16T11:26:55;37.60;;;25.43;;
14342;SDS011;7255;53.596;9.960;2022-12-16T11:29:50;34.93;;;27.87;;
14342;SDS011;7255;53.596;9.960;2022-12-16T11:32:36;32.50;;;25.50;;
14342;SDS011;7255;53.596;9.960;2022-12-16T11:35:23;35.37;;;27.20;;
14342;SDS011;7255;53.596;9.960;2022-12-16T11:38:13;36.10;;;26.43;;
14342;SDS011;7255;53.596;9.960;2022-12-16T11:41:03;39.23;;;26.73;;
14342;SDS011;7255;53.596;9.960;2022-12-16T11:43:48;45.23;;;27.73;;
14342;SDS011;7255;53.596;9.960;2022-12-16T11:46:34;39.17;;;27.30;;
14342;SDS011;7255;53.596;9.960;2022-12-16T11:49:19;37.53;;;27.17;;
14342;SDS011;7255;53.596;9.960;2022-12-16T11:52:08;37.03;;;27.20;;
14342;SDS011;7255;53.596;9.960;2022-12-16T11:54:58;38.67;;;28.03;;
14342;SDS011;7255;53.596;9.960;2022-12-16T11:57:51;39.90;;;26.43;;
14342;SDS011;7255;53.596;9.960;2022-12-16T12:00:45;34.70;;;26.03;;
14342;SDS011;7255;53.596;9.960;2022-12-16T12:03:38;38.03;;;27.00;;
14342;SDS011;7255;53.596;9.960;2022-12-16T12:06:28;36.47;;;27.17;;
14342;SDS011;7255;53.596;9.960;2022-12-16T12:09:21;36.93;;;24.97;;
14342;SDS011;7255;53.596;9.960;2022-12-16T12:12:11;40.03;;;28.77;;
14342;SDS011;7255;53.596;9.960;2022-12-16T12:15:08;38.53;;;26.00;;
14342;SDS011;7255;53.596;9.960;2022-12-16T12:18:01;34.77;;;26.50;;
14342;SDS011;7255;53.596;9.960;2022-12-16T12:20:52;38.33;;;28.27;;
14342;SDS011;7255;53.596;9.960;2022-12-16T12:23:45;37.67;;;26.80;;
14342;SDS011;7255;53.596;9.960;2022-12-16T12:26:36;35.07;;;25.77;;
14342;SDS011;7255;53.596;9.960;2022-12-16T12:29:30;35.83;;;26.17;;
14342;SDS011;7255;53.596;9.960;2022-12-16T12:32:23;33.40;;;25.47;;
14342;SDS011;7255;53.596;9.960;2022-12-16T12:35:19;36.33;;;26.17;;
14342;SDS011;7255;53.596;9.960;2022-12-16T12:38:16;37.23;;;26.07;;
14342;SDS011;7255;53.596;9.960;2022-12-16T12:41:08;34.10;;;26.57;;
14342;SDS011;7255;53.596;9.960;2022-12-16T12:44:01;36.80;;;26.20;;
14342;SDS011;7255;53.596;9.960;2022-12-16T12:46:56;36.30;;;25.73;;
14342;SDS011;7255;53.596;9.960;2022-12-16T12:49:42;35.57;;;26.63;;
14342;SDS011;7255;53.596;9.960;2022-12-16T12:52:43;34.73;;;26.87;;
14342;SDS011;7255;53.596;9.960;2022-12-16T12:55:42;35.70;;;26.13;;
14342;SDS011;7255;53.596;9.960;2022-12-16T12:58:32;39.77;;;26.50;;
14342;SDS011;7255;53.596;9.960;2022-12-16T13:01:18;38.93;;;26.20;;
14342;SDS011;7255;53.596;9.960;2022-12-16T13:04:09;37.20;;;26.50;;
14342;SDS011;7255;53.596;9.960;2022-12-16T13:06:56;37.03;;;27.63;;
14342;SDS011;7255;53.596;9.960;2022-12-16T13:09:43;38.83;;;27.63;;
14342;SDS011;7255;53.596;9.960;2022-12-16T13:12:27;37.87;;;27.63;;
14342;SDS011;7255;53.596;9.960;2022-12-16T13:15:10;35.93;;;26.77;;
14342;SDS011;7255;53.596;9.960;2022-12-16T13:24:33;36.23;;;27.00;;
14342;SDS011;7255;53.596;9.960;2022-12-16T13:27:21;39.33;;;28.13;;
14342;SDS011;7255;53.596;9.960;2022-12-16T13:30:19;35.57;;;26.47;;
14342;SDS011;7255;53.596;9.960;2022-12-16T13:33:06;39.70;;;27.70;;
14342;SDS011;7255;53.596;9.960;2022-12-16T13:36:03;40.90;;;28.30;;
14342;SDS011;7255;53.596;9.960;2022-12-16T13:38:50;42.13;;;28.83;;
14342;SDS011;7255;53.596;9.960;2022-12-16T13:44:53;42.33;;;30.10;;
14342;SDS011;7255;53.596;9.960;2022-12-16T13:47:58;47.20;;;31.90;;
14342;SDS011;7255;53.596;9.960;2022-12-16T13:50:45;39.37;;;29.40;;
14342;SDS011;7255;53.596;9.960;2022-12-16T13:53:32;38.93;;;28.30;;
14342;SDS011;7255;53.596;9.960;2022-12-16T13:56:24;40.03;;;29.27;;
14342;SDS011;7255;53.596;9.960;2022-12-16T13:59:13;40.80;;;29.83;;
14342;SDS011;7255;53.596;9.960;2022-12-16T14:02:01;41.57;;;29.23;;
14342;SDS011;7255;53.596;9.960;2022-12-16T14:04:52;48.80;;;30.80;;
14342;SDS011;7255;53.596;9.960;2022-12-16T14:07:37;44.30;;;31.80;;
14342;SDS011;7255;53.596;9.960;2022-12-16T14:10:23;47.47;;;32.97;;
14342;SDS011;7255;53.596;9.960;2022-12-16T14:13:11;45.80;;;32.40;;
14342;SDS011;7255;53.596;9.960;2022-12-16T14:16:03;48.93;;;32.60;;
14342;SDS011;7255;53.596;9.960;2022-12-16T14:18:58;41.10;;;30.13;;
14342;SDS011;7255;53.596;9.960;2022-12-16T14:21:53;52.07;;;33.83;;
14342;SDS011;7255;53.596;9.960;2022-12-16T14:24:47;48.20;;;32.23;;
14342;SDS011;7255;53.596;9.960;2022-12-16T14:27:31;50.03;;;30.97;;
14342;SDS011;7255;53.596;9.960;2022-12-16T14:30:19;45.80;;;31.53;;
14342;SDS011;7255;53.596;9.960;2022-12-16T14:36:20;49.47;;;33.77;;
14342;SDS011;7255;53.596;9.960;2022-12-16T14:39:09;44.53;;;31.93;;
14342;SDS011;7255;53.596;9.960;2022-12-16T14:41:55;50.40;;;35.13;;
14342;SDS011;7255;53.596;9.960;2022-12-16T14:44:39;49.53;;;33.20;;
14342;SDS011;7255;53.596;9.960;2022-12-16T14:47:24;44.47;;;31.67;;
14342;SDS011;7255;53.596;9.960;2022-12-16T14:50:17;51.30;;;34.10;;
14342;SDS011;7255;53.596;9.960;2022-12-16T14:53:13;46.03;;;32.83;;
14342;SDS011;7255;53.596;9.960;2022-12-16T14:59:13;49.97;;;34.00;;
14342;SDS011;7255;53.596;9.960;2022-12-16T15:01:59;46.70;;;32.27;;
14342;SDS011;7255;53.596;9.960;2022-12-16T15:04:56;48.13;;;34.20;;
14342;SDS011;7255;53.596;9.960;2022-12-16T15:07:49;55.67;;;35.87;;
14342;SDS011;7255;53.596;9.960;2022-12-16T15:10:34;43.97;;;33.10;;
14342;SDS011;7255;53.596;9.960;2022-12-16T15:13:15;52.67;;;35.73;;
14342;SDS011;7255;53.596;9.960;2022-12-16T15:16:00;54.13;;;35.27;;
14342;SDS011;7255;53.596;9.960;2022-12-16T15:18:46;54.07;;;34.27;;
14342;SDS011;7255;53.596;9.960;2022-12-16T15:21:41;51.73;;;36.17;;
14342;SDS011;7255;53.596;9.960;2022-12-16T15:24:25;51.77;;;36.17;;
14342;SDS011;7255;53.596;9.960;2022-12-16T15:27:14;55.03;;;36.43;;
14342;SDS011;7255;53.596;9.960;2022-12-16T15:33:30;55.93;;;36.53;;
14342;SDS011;7255;53.596;9.960;2022-12-16T15:36:20;54.50;;;36.13;;
14342;SDS011;7255;53.596;9.960;2022-12-16T15:39:10;58.80;;;38.30;;
14342;SDS011;7255;53.596;9.960;2022-12-16T15:41:59;57.30;;;37.17;;
14342;SDS011;7255;53.596;9.960;2022-12-16T15:44:44;62.33;;;39.50;;
14342;SDS011;7255;53.596;9.960;2022-12-16T15:47:32;56.93;;;38.23;;
14342;SDS011;7255;53.596;9.960;2022-12-16T15:50:18;55.27;;;37.73;;
14342;SDS011;7255;53.596;9.960;2022-12-16T15:53:14;58.47;;;39.23;;
14342;SDS011;7255;53.596;9.960;2022-12-16T15:56:19;55.40;;;36.17;;
14342;SDS011;7255;53.596;9.960;2022-12-16T15:59:14;62.87;;;38.63;;
14342;SDS011;7255;53.596;9.960;2022-12-16T16:02:11;54.80;;;36.97;;
14342;SDS011;7255;53.596;9.960;2022-12-16T16:04:58;55.13;;;37.07;;
14342;SDS011;7255;53.596;9.960;2022-12-16T16:07:42;52.47;;;36.57;;
14342;SDS011;7255;53.596;9.960;2022-12-16T16:10:26;50.27;;;35.87;;
14342;SDS011;7255;53.596;9.960;2022-12-16T16:13:11;50.83;;;36.73;;
14342;SDS011;7255;53.596;9.960;2022-12-16T16:15:55;56.20;;;39.20;;
14342;SDS011;7255;53.596;9.960;2022-12-16T16:18:39;55.70;;;36.83;;
14342;SDS011;7255;53.596;9.960;2022-12-16T16:21:24;53.93;;;35.77;;
14342;SDS011;7255;53.596;9.960;2022-12-16T16:24:08;55.50;;;37.53;;
14342;SDS011;7255;53.596;9.960;2022-12-16T16:26:53;55.20;;;37.70;;